createdAt,value
2018-07-11T00:01:03.891Z,3.07
2018-07-11T00:03:46.648Z,2.47
2018-07-11T00:06:19.149Z,3.00
2018-07-11T00:08:50.660Z,3.50
2018-07-11T00:11:22.112Z,3.40
2018-07-11T00:13:53.323Z,3.40
2018-07-11T00:16:24.702Z,3.40
2018-07-11T00:18:56.328Z,2.80
2018-07-11T00:21:27.675Z,3.20
2018-07-11T00:23:58.994Z,3.17
2018-07-11T00:26:30.358Z,3.00
2018-07-11T00:29:01.646Z,2.97
2018-07-11T00:31:33.428Z,2.97
2018-07-11T00:34:04.797Z,2.63
2018-07-11T00:36:36.111Z,5.87
2018-07-11T00:39:07.664Z,3.10
2018-07-11T00:41:39.080Z,3.50
2018-07-11T00:44:10.598Z,3.10
2018-07-11T00:46:41.899Z,3.00
2018-07-11T00:49:13.555Z,2.80
2018-07-11T00:51:44.754Z,2.90
2018-07-11T00:54:16.248Z,3.10
2018-07-11T00:56:47.996Z,3.63
2018-07-11T00:59:25.619Z,3.43
2018-07-11T01:02:02.819Z,3.73
2018-07-11T01:04:33.599Z,3.40
2018-07-11T01:07:06.746Z,3.63
2018-07-11T01:09:49.495Z,3.50
2018-07-11T01:12:21.402Z,3.50
2018-07-11T01:14:52.822Z,4.27
2018-07-11T01:17:29.331Z,3.53
2018-07-11T01:20:00.879Z,3.90
2018-07-11T01:22:32.236Z,3.90
2018-07-11T01:25:03.880Z,3.47
2018-07-11T01:27:35.087Z,3.93
2018-07-11T01:30:06.501Z,3.80
2018-07-11T01:32:37.806Z,3.67
2018-07-11T01:35:09.036Z,3.80
2018-07-11T01:37:40.314Z,3.70
2018-07-11T01:40:11.419Z,3.97
2018-07-11T01:42:43.120Z,3.70
2018-07-11T01:45:14.576Z,4.50
2018-07-11T01:47:46.283Z,4.03
2018-07-11T01:50:17.685Z,3.93
2018-07-11T01:52:57.900Z,4.03
2018-07-11T01:55:29.932Z,3.77
2018-07-11T01:58:01.850Z,3.53
2018-07-11T02:00:33.664Z,3.77
2018-07-11T02:03:05.286Z,3.63
2018-07-11T02:05:36.520Z,3.83
2018-07-11T02:08:07.749Z,4.20
2018-07-11T02:10:39.228Z,3.90
2018-07-11T02:13:10.539Z,3.70
2018-07-11T02:15:42.149Z,3.60
2018-07-11T02:18:12.750Z,3.53
2018-07-11T02:20:44.517Z,6.27
2018-07-11T02:23:16.190Z,4.30
2018-07-11T02:25:48.170Z,4.20
2018-07-11T02:28:20.036Z,4.17
2018-07-11T02:30:51.076Z,3.63
2018-07-11T02:33:22.275Z,3.40
2018-07-11T02:35:53.908Z,3.80
2018-07-11T02:38:25.466Z,4.10
2018-07-11T02:40:57.052Z,3.60
2018-07-11T02:43:28.248Z,3.50
2018-07-11T02:45:59.764Z,3.70
2018-07-11T02:48:31.233Z,3.47
2018-07-11T02:51:02.628Z,3.53
2018-07-11T02:53:33.846Z,3.57
2018-07-11T02:56:05.399Z,3.10
2018-07-11T02:58:36.659Z,3.20
2018-07-11T03:01:08.336Z,3.53
2018-07-11T03:03:39.843Z,4.03
2018-07-11T03:06:11.132Z,3.30
2018-07-11T03:08:43.101Z,3.67
2018-07-11T03:11:14.583Z,4.03
2018-07-11T03:13:46.199Z,4.10
2018-07-11T03:16:17.470Z,3.87
2018-07-11T03:18:48.847Z,3.60
2018-07-11T03:21:20.216Z,5.80
2018-07-11T03:23:51.741Z,3.87
2018-07-11T03:26:23.036Z,4.10
2018-07-11T03:28:54.571Z,4.43
2018-07-11T03:31:25.928Z,4.20
2018-07-11T03:33:57.487Z,4.33
2018-07-11T03:36:28.614Z,4.47
2018-07-11T03:39:00.052Z,4.60
2018-07-11T03:41:32.225Z,4.30
2018-07-11T03:44:03.848Z,5.70
2018-07-11T03:46:35.381Z,4.73
2018-07-11T03:49:06.563Z,4.80
2018-07-11T03:51:38.151Z,7.17
2018-07-11T03:54:09.498Z,4.20
2018-07-11T03:56:40.639Z,5.80
2018-07-11T03:59:11.855Z,5.60
2018-07-11T04:01:43.045Z,5.53
2018-07-11T04:04:14.459Z,5.07
2018-07-11T04:06:46.027Z,7.17
2018-07-11T04:09:17.387Z,6.80
2018-07-11T04:11:48.912Z,6.60
2018-07-11T04:14:20.732Z,4.93
2018-07-11T04:16:52.295Z,5.37
2018-07-11T04:19:23.485Z,4.30
2018-07-11T04:21:54.979Z,6.23
2018-07-11T04:24:26.272Z,5.70
2018-07-11T04:26:57.630Z,5.50
2018-07-11T04:29:29.185Z,5.40
2018-07-11T04:32:00.612Z,6.03
2018-07-11T04:34:32.219Z,6.43
2018-07-11T04:37:03.788Z,6.07
2018-07-11T04:39:34.905Z,6.50
2018-07-11T04:42:06.151Z,6.23
2018-07-11T04:44:38.201Z,7.00
2018-07-11T04:47:09.558Z,22.43
2018-07-11T04:49:40.963Z,7.17
2018-07-11T04:52:12.571Z,9.23
2018-07-11T04:54:43.727Z,7.47
2018-07-11T04:57:15.144Z,6.23
2018-07-11T04:59:46.555Z,6.00
2018-07-11T05:02:18.167Z,11.57
2018-07-11T05:04:49.358Z,11.80
2018-07-11T05:07:20.729Z,7.53
2018-07-11T05:09:51.949Z,7.17
2018-07-11T05:12:23.855Z,10.00
2018-07-11T05:14:55.095Z,8.30
2018-07-11T05:17:26.827Z,11.27
2018-07-11T05:19:58.089Z,9.00
2018-07-11T05:22:29.428Z,6.40
2018-07-11T05:25:00.709Z,5.67
2018-07-11T05:27:32.049Z,5.17
2018-07-11T05:30:03.606Z,5.23
2018-07-11T05:32:34.850Z,5.87
2018-07-11T05:35:05.879Z,7.27
2018-07-11T05:37:36.816Z,6.17
2018-07-11T05:40:08.750Z,8.20
2018-07-11T05:42:40.049Z,6.37
2018-07-11T05:45:11.684Z,6.10
2018-07-11T05:47:42.891Z,5.03
2018-07-11T05:50:14.265Z,6.50
2018-07-11T05:52:45.754Z,11.30
2018-07-11T05:55:17.032Z,7.00
2018-07-11T05:57:48.406Z,5.10
2018-07-11T06:00:19.724Z,5.57
2018-07-11T06:02:50.885Z,6.70
2018-07-11T06:05:22.579Z,24.47
2018-07-11T06:07:53.991Z,102.50
2018-07-11T06:10:25.275Z,66.77
2018-07-11T06:12:56.833Z,35.60
2018-07-11T06:15:28.231Z,26.47
2018-07-11T06:17:59.712Z,45.80
2018-07-11T06:20:31.123Z,11.83
2018-07-11T06:23:02.480Z,8.90
2018-07-11T06:25:33.930Z,13.73
2018-07-11T06:28:05.296Z,9.30
2018-07-11T06:30:36.454Z,9.33
2018-07-11T06:33:07.727Z,9.77
2018-07-11T06:35:38.430Z,8.50
2018-07-11T06:38:09.811Z,20.67
2018-07-11T06:40:41.087Z,10.50
2018-07-11T06:43:12.543Z,10.50
2018-07-11T06:45:43.811Z,9.23
2018-07-11T06:48:15.164Z,11.20
2018-07-11T06:50:46.596Z,10.80
2018-07-11T06:53:18.064Z,10.67
2018-07-11T06:55:49.589Z,10.47
2018-07-11T06:58:20.968Z,9.87
2018-07-11T07:00:52.350Z,10.37
2018-07-11T07:03:23.906Z,12.20
2018-07-11T07:05:55.229Z,9.27
2018-07-11T07:08:26.770Z,9.93
2018-07-11T07:10:58.125Z,10.27
2018-07-11T07:13:29.559Z,11.00
2018-07-11T07:16:01.148Z,9.97
2018-07-11T07:18:33.374Z,9.70
2018-07-11T07:21:04.836Z,9.33
2018-07-11T07:23:36.408Z,13.33
2018-07-11T07:26:07.928Z,11.70
2018-07-11T07:28:39.016Z,11.80
2018-07-11T07:31:10.441Z,9.63
2018-07-11T07:33:41.599Z,8.33
2018-07-11T07:36:12.877Z,8.50
2018-07-11T07:38:45.552Z,8.63
2018-07-11T07:41:16.748Z,8.33
2018-07-11T07:43:48.308Z,8.93
2018-07-11T07:46:19.821Z,9.40
2018-07-11T07:48:51.088Z,9.80
2018-07-11T07:51:22.323Z,8.20
2018-07-11T07:53:53.907Z,10.07
2018-07-11T07:56:25.522Z,12.30
2018-07-11T07:58:56.895Z,12.07
2018-07-11T08:01:28.256Z,11.17
2018-07-11T08:03:59.714Z,10.10
2018-07-11T08:06:31.037Z,9.47
2018-07-11T08:09:02.407Z,8.10
2018-07-11T08:11:33.699Z,9.00
2018-07-11T08:14:04.987Z,8.33
2018-07-11T08:16:36.402Z,8.50
2018-07-11T08:19:08.083Z,7.40
2018-07-11T08:21:39.516Z,7.63
2018-07-11T08:24:26.836Z,6.97
2018-07-11T08:27:57.486Z,9.00
2018-07-11T08:31:43.604Z,8.37
2018-07-11T08:49:30.612Z,7.80
2018-07-11T08:52:28.991Z,7.33
2018-07-11T08:55:21.312Z,6.80
2018-07-11T08:58:07.553Z,10.40
2018-07-11T09:01:00.684Z,10.13
2018-07-11T09:14:57.391Z,11.20
2018-07-11T09:17:47.370Z,7.40
2018-07-11T09:20:34.787Z,8.80
2018-07-11T09:23:29.071Z,8.03
2018-07-11T09:26:00.476Z,8.03
2018-07-11T09:28:31.877Z,7.87
2018-07-11T09:31:03.160Z,7.93
2018-07-11T09:33:34.475Z,7.87
2018-07-11T09:36:05.975Z,8.03
2018-07-11T09:38:37.388Z,7.17
2018-07-11T09:41:08.980Z,8.40
2018-07-11T09:43:40.631Z,13.90
2018-07-11T09:46:11.983Z,20.20
2018-07-11T09:48:43.377Z,20.63
2018-07-11T09:51:14.859Z,25.30
2018-07-11T09:53:46.191Z,23.42
2018-07-11T09:56:17.647Z,21.10
2018-07-11T09:58:49.187Z,20.37
2018-07-11T10:01:25.627Z,17.63
2018-07-11T10:03:57.812Z,14.50
2018-07-11T10:06:30.020Z,14.50
2018-07-11T10:09:01.467Z,12.77
2018-07-11T10:11:32.910Z,13.07
2018-07-11T10:14:04.524Z,14.00
2018-07-11T10:16:35.723Z,13.35
2018-07-11T10:19:07.231Z,14.40
2018-07-11T10:21:38.930Z,14.10
2018-07-11T10:24:10.035Z,14.80
2018-07-11T10:26:41.349Z,15.50
2018-07-11T10:29:12.755Z,13.78
2018-07-11T10:31:44.315Z,10.98
2018-07-11T10:34:15.841Z,10.32
2018-07-11T10:36:47.412Z,10.00
2018-07-11T10:39:18.648Z,9.20
2018-07-11T10:41:49.908Z,11.63
2018-07-11T10:44:21.088Z,10.78
2018-07-11T10:46:56.730Z,12.55
2018-07-11T10:49:27.860Z,12.68
2018-07-11T10:51:59.329Z,14.53
2018-07-11T10:54:30.648Z,14.15
2018-07-11T10:57:01.976Z,14.93
2018-07-11T10:59:33.720Z,13.80
2018-07-11T11:02:05.020Z,13.85
2018-07-11T11:04:36.655Z,11.60
2018-07-11T11:07:08.000Z,13.05
2018-07-11T11:09:39.072Z,10.48
2018-07-11T11:12:10.454Z,10.72
2018-07-11T11:14:41.838Z,11.18
2018-07-11T11:17:13.287Z,9.78
2018-07-11T11:19:44.722Z,10.28
2018-07-11T11:22:16.180Z,9.50
2018-07-11T11:24:47.443Z,10.25
2018-07-11T11:27:18.702Z,9.55
2018-07-11T11:29:50.008Z,8.40
2018-07-11T11:32:21.307Z,8.30
2018-07-11T11:34:52.171Z,7.62
2018-07-11T11:37:23.586Z,7.17
2018-07-11T11:39:54.300Z,7.17
2018-07-11T11:42:26.008Z,7.50
2018-07-11T11:44:56.561Z,7.10
2018-07-11T11:47:28.919Z,6.67
2018-07-11T11:50:00.200Z,7.05
2018-07-11T11:52:31.664Z,6.53
2018-07-11T11:55:02.896Z,6.65
2018-07-11T11:57:34.426Z,6.17
2018-07-11T12:00:05.711Z,5.47
2018-07-11T12:02:36.851Z,6.03
2018-07-11T12:05:08.417Z,7.05
2018-07-11T12:07:39.746Z,5.97
2018-07-11T12:10:11.021Z,6.40
2018-07-11T12:12:42.696Z,6.12
2018-07-11T12:15:14.419Z,5.78
2018-07-11T12:17:45.751Z,5.65
2018-07-11T12:20:17.424Z,5.78
2018-07-11T12:22:48.794Z,4.90
2018-07-11T12:25:19.591Z,6.15
2018-07-11T12:27:50.683Z,5.67
2018-07-11T12:30:21.985Z,6.62
2018-07-11T12:32:53.504Z,5.35
2018-07-11T12:35:25.321Z,5.97
2018-07-11T12:37:56.691Z,6.67
2018-07-11T12:40:28.098Z,5.45
2018-07-11T12:42:59.480Z,5.03
2018-07-11T12:45:30.568Z,4.47
2018-07-11T12:48:06.944Z,4.17
2018-07-11T12:50:38.487Z,4.70
2018-07-11T12:53:09.964Z,5.05
2018-07-11T12:55:41.307Z,5.78
2018-07-11T12:58:12.884Z,8.08
2018-07-11T13:00:43.604Z,6.15
2018-07-11T13:03:15.711Z,5.95
2018-07-11T13:05:47.099Z,5.70
2018-07-11T13:08:20.875Z,8.55
2018-07-11T13:10:52.505Z,5.35
2018-07-11T13:13:23.902Z,6.65
2018-07-11T13:15:55.116Z,6.12
2018-07-11T13:18:26.514Z,6.20
2018-07-11T13:20:57.652Z,5.45
2018-07-11T13:23:29.112Z,6.30
2018-07-11T13:26:00.619Z,5.62
2018-07-11T13:28:32.280Z,5.97
2018-07-11T13:31:03.728Z,5.45
2018-07-11T13:33:35.004Z,8.10
2018-07-11T13:36:06.243Z,5.85
2018-07-11T13:38:37.600Z,5.70
2018-07-11T13:41:09.114Z,6.20
2018-07-11T13:43:40.307Z,6.22
2018-07-11T13:46:11.296Z,7.37
2018-07-11T13:48:42.807Z,7.25
2018-07-11T13:51:14.472Z,7.55
2018-07-11T13:53:46.843Z,5.87
2018-07-11T13:56:17.662Z,5.08
2018-07-11T13:58:49.332Z,5.35
2018-07-11T14:01:20.552Z,5.42
2018-07-11T14:03:51.905Z,5.87
2018-07-11T14:06:23.414Z,8.65
2018-07-11T14:08:54.771Z,6.60
2018-07-11T14:11:26.179Z,8.00
2018-07-11T14:13:57.413Z,6.62
2018-07-11T14:16:28.505Z,5.90
2018-07-11T14:18:59.778Z,5.30
2018-07-11T14:21:31.208Z,5.62
2018-07-11T14:24:02.577Z,6.47
2018-07-11T14:26:35.540Z,6.65
2018-07-11T14:29:07.019Z,6.78
2018-07-11T14:31:38.488Z,12.00
2018-07-11T14:34:10.190Z,16.90
2018-07-11T14:36:41.568Z,11.00
2018-07-11T14:39:12.933Z,11.00
2018-07-11T14:41:43.995Z,12.33
2018-07-11T14:44:14.770Z,11.45
2018-07-11T14:46:46.323Z,8.08
2018-07-11T14:49:18.008Z,6.92
2018-07-11T14:51:49.419Z,5.65
2018-07-11T14:54:20.915Z,5.37
2018-07-11T14:56:52.231Z,5.33
2018-07-11T14:59:23.687Z,4.50
2018-07-11T15:01:55.132Z,5.90
2018-07-11T15:04:26.393Z,4.83
2018-07-11T15:06:58.016Z,5.42
2018-07-11T15:09:29.639Z,6.37
2018-07-11T15:12:01.251Z,5.15
2018-07-11T15:14:32.684Z,6.90
2018-07-11T15:17:04.294Z,7.33
2018-07-11T15:19:35.835Z,5.25
2018-07-11T15:22:07.276Z,5.35
2018-07-11T15:24:38.838Z,5.00
2018-07-11T15:27:10.075Z,5.15
2018-07-11T15:29:41.388Z,8.05
2018-07-11T15:32:12.955Z,6.45
2018-07-11T15:34:44.612Z,7.25
2018-07-11T15:37:15.963Z,7.00
2018-07-11T15:39:47.533Z,6.30
2018-07-11T15:42:18.935Z,5.58
2018-07-11T15:44:51.032Z,5.87
2018-07-11T15:47:23.048Z,5.80
2018-07-11T15:49:54.919Z,6.67
2018-07-11T15:52:26.815Z,6.50
2018-07-11T15:55:00.529Z,5.60
2018-07-11T15:57:39.772Z,6.62
2018-07-11T16:00:14.364Z,6.50
2018-07-11T16:02:49.100Z,7.70
2018-07-11T16:05:21.955Z,6.20
2018-07-11T16:07:54.915Z,5.80
2018-07-11T16:10:46.100Z,7.00
2018-07-11T16:13:17.356Z,6.00
2018-07-11T16:15:49.219Z,6.60
2018-07-11T16:18:20.608Z,6.40
2018-07-11T16:20:52.145Z,6.60
2018-07-11T16:23:23.561Z,6.63
2018-07-11T16:25:55.029Z,6.70
2018-07-11T16:28:26.478Z,6.70
2018-07-11T16:30:57.904Z,5.90
2018-07-11T16:33:29.477Z,6.63
2018-07-11T16:36:00.912Z,8.18
2018-07-11T16:38:32.640Z,6.50
2018-07-11T16:41:04.063Z,8.18
2018-07-11T16:43:35.826Z,6.37
2018-07-11T16:46:07.220Z,7.00
2018-07-11T16:48:39.296Z,6.50
2018-07-11T16:51:10.540Z,6.47
2018-07-11T16:53:42.296Z,6.13
2018-07-11T16:56:13.760Z,6.50
2018-07-11T16:58:53.696Z,5.60
2018-07-11T17:01:31.833Z,6.03
2018-07-11T17:04:07.251Z,6.13
2018-07-11T17:06:39.507Z,7.53
2018-07-11T17:09:11.350Z,5.93
2018-07-11T17:11:43.689Z,5.57
2018-07-11T17:14:17.207Z,6.43
2018-07-11T17:16:54.536Z,6.83
2018-07-11T17:19:36.913Z,6.10
2018-07-11T17:22:09.488Z,5.97
2018-07-11T17:24:46.516Z,6.50
2018-07-11T17:27:23.091Z,6.03
2018-07-11T17:29:58.375Z,5.73
2018-07-11T17:32:30.538Z,5.87
2018-07-11T17:35:01.919Z,6.20
2018-07-11T17:37:37.383Z,5.27
2018-07-11T17:40:11.914Z,5.17
2018-07-11T17:42:45.565Z,5.73
2018-07-11T17:45:20.411Z,5.90
2018-07-11T17:50:04.806Z,5.50
2018-07-11T17:53:42.172Z,5.45
2018-07-11T17:56:14.721Z,6.17
2018-07-11T17:58:57.702Z,7.13
2018-07-11T18:02:06.029Z,6.57
2018-07-11T18:04:54.301Z,6.60
2018-07-11T18:07:48.232Z,7.07
2018-07-11T18:10:33.643Z,7.22
2018-07-11T18:13:20.716Z,9.63
2018-07-11T18:17:09.074Z,20.50
2018-07-11T18:20:15.471Z,7.80
2018-07-11T18:26:03.351Z,8.43
2018-07-11T18:28:56.911Z,7.63
2018-07-11T18:31:57.988Z,9.43
2018-07-11T18:34:48.206Z,7.20
2018-07-11T18:37:41.643Z,7.17
2018-07-11T18:41:49.683Z,6.57
2018-07-11T18:44:32.508Z,6.43
2018-07-11T18:47:22.080Z,8.33
2018-07-11T18:51:19.121Z,23.33
2018-07-11T18:54:09.368Z,7.50
2018-07-11T18:59:04.439Z,6.97
2018-07-11T19:02:04.660Z,6.37
2018-07-11T19:05:54.302Z,6.17
2018-07-11T19:08:34.056Z,5.43
2018-07-11T19:12:12.306Z,5.47
2018-07-11T19:14:52.986Z,7.50
2018-07-11T19:27:35.848Z,5.43
2018-07-11T19:30:10.651Z,9.13
2018-07-11T19:33:15.676Z,17.80
2018-07-11T19:38:30.879Z,20.07
2018-07-11T19:44:23.881Z,6.83
2018-07-11T19:47:09.829Z,7.60
2018-07-11T19:49:57.973Z,5.47
2018-07-11T19:52:47.354Z,6.50
2018-07-11T19:57:26.773Z,6.97
2018-07-11T19:59:58.221Z,6.13
2018-07-11T20:02:29.752Z,6.30
2018-07-11T20:05:01.132Z,7.90
2018-07-11T20:07:33.481Z,5.87
2018-07-11T20:10:05.052Z,6.47
2018-07-11T20:12:37.032Z,6.07
2018-07-11T20:15:08.768Z,5.97
2018-07-11T20:17:40.023Z,6.20
2018-07-11T20:20:11.542Z,6.33
2018-07-11T20:22:42.930Z,6.80
2018-07-11T20:25:14.346Z,11.80
2018-07-11T20:27:46.575Z,9.87
2018-07-11T20:30:17.870Z,17.57
2018-07-11T20:32:50.496Z,13.40
2018-07-11T20:35:21.978Z,5.70
2018-07-11T20:37:54.852Z,4.70
2018-07-11T20:40:26.291Z,4.90
2018-07-11T20:42:57.791Z,4.70
2018-07-11T20:45:29.194Z,4.83
2018-07-11T20:48:01.306Z,8.23
2018-07-11T20:50:33.303Z,5.50
2018-07-11T20:53:04.661Z,5.20
2018-07-11T20:55:36.196Z,5.77
2018-07-11T20:58:23.866Z,6.13
2018-07-11T21:01:11.157Z,38.77
2018-07-11T21:07:06.756Z,7.27
2018-07-11T21:09:54.273Z,5.97
2018-07-11T21:12:57.400Z,6.17
2018-07-11T21:16:54.296Z,6.03
2018-07-11T21:19:30.772Z,4.57
2018-07-11T21:22:02.215Z,5.10
2018-07-11T21:24:33.699Z,5.17
2018-07-11T21:27:05.088Z,9.10
2018-07-11T21:29:36.656Z,5.60
2018-07-11T21:32:08.034Z,6.13
2018-07-11T21:34:39.694Z,5.00
2018-07-11T21:37:11.445Z,5.77
2018-07-11T21:39:43.332Z,5.87
2018-07-11T21:42:14.963Z,6.30
2018-07-11T21:44:46.458Z,6.17
2018-07-11T21:47:18.095Z,5.10
2018-07-11T21:49:49.508Z,6.27
2018-07-11T21:52:20.960Z,5.40
2018-07-11T21:54:52.363Z,5.60
2018-07-11T21:57:23.769Z,5.57
2018-07-11T21:59:55.031Z,5.30
2018-07-11T22:02:26.364Z,5.63
2018-07-11T22:04:57.856Z,5.87
2018-07-11T22:07:28.968Z,5.47
2018-07-11T22:10:00.547Z,6.70
2018-07-11T22:12:31.885Z,5.13
2018-07-11T22:15:03.365Z,5.20
2018-07-11T22:17:50.999Z,5.03
2018-07-11T22:20:20.004Z,5.30
2018-07-11T22:22:48.791Z,5.20
2018-07-11T22:25:17.558Z,4.60
2018-07-11T22:27:46.592Z,5.43
2018-07-11T22:30:15.357Z,5.43
2018-07-11T22:32:44.175Z,5.20
2018-07-11T22:35:12.936Z,5.37
2018-07-11T22:37:41.759Z,5.20
2018-07-11T22:40:10.617Z,5.93
2018-07-11T22:42:39.350Z,5.67
2018-07-11T22:45:08.034Z,5.27
2018-07-11T22:47:36.742Z,5.17
2018-07-11T22:50:05.487Z,4.87
2018-07-11T22:52:34.222Z,5.10
2018-07-11T22:55:02.934Z,5.27
2018-07-11T22:57:31.628Z,4.97
2018-07-11T23:00:00.439Z,5.20
2018-07-11T23:02:29.192Z,5.23
2018-07-11T23:04:57.975Z,5.67
2018-07-11T23:07:26.643Z,6.93
2018-07-11T23:09:55.430Z,5.03
2018-07-11T23:12:24.167Z,4.97
2018-07-11T23:14:52.903Z,5.07
2018-07-11T23:17:21.613Z,6.07
2018-07-11T23:19:50.388Z,5.10
2018-07-11T23:22:19.290Z,5.00
2018-07-11T23:24:48.989Z,5.33
2018-07-11T23:27:17.662Z,4.93
2018-07-11T23:29:46.347Z,4.40
2018-07-11T23:32:15.151Z,5.50
2018-07-11T23:34:43.905Z,4.80
2018-07-11T23:37:12.712Z,5.20
2018-07-11T23:39:41.396Z,4.73
2018-07-11T23:42:10.091Z,5.77
2018-07-11T23:44:38.767Z,5.13
2018-07-11T23:47:07.658Z,5.10
2018-07-11T23:49:36.377Z,4.90
2018-07-11T23:52:05.256Z,5.00
2018-07-11T23:54:33.972Z,4.60
2018-07-11T23:57:02.756Z,5.27
2018-07-11T23:59:31.502Z,5.47
